sensor_id;sensor_type;location;lat;lon;timestamp;pressure;altitude;pressure_sealevel;temperature;humidity
18900;BME280;9582;52.018;6.306;2023-01-29T00:01:09;102890.22;;;2.18;100.00
18900;BME280;9582;52.018;6.306;2023-01-29T00:03:38;102879.94;;;2.20;100.00
18900;BME280;9582;52.018;6.306;2023-01-29T00:06:08;102872.22;;;2.21;100.00
18900;BME280;9582;52.018;6.306;2023-01-29T00:08:45;102879.09;;;2.21;100.00
18900;BME280;9582;52.018;6.306;2023-01-29T00:11:15;102879.94;;;2.20;100.00
18900;BME280;9582;52.018;6.306;2023-01-29T00:13:49;102872.13;;;2.17;100.00
18900;BME280;9582;52.018;6.306;2023-01-29T00:16:17;102877.31;;;2.18;100.00
18900;BME280;9582;52.018;6.306;2023-01-29T00:18:48;102874.66;;;2.15;100.00
18900;BME280;9582;52.018;6.306;2023-01-29T00:21:18;102878.09;;;2.14;100.00
18900;BME280;9582;52.018;6.306;2023-01-29T00:23:53;102879.81;;;2.15;100.00
18900;BME280;9582;52.018;6.306;2023-01-29T00:26:22;102889.19;;;2.12;100.00
18900;BME280;9582;52.018;6.306;2023-01-29T00:28:54;102883.25;;;2.14;100.00
18900;BME280;9582;52.018;6.306;2023-01-29T00:31:26;102875.47;;;2.13;100.00
18900;BME280;9582;52.018;6.306;2023-01-29T00:33:58;102866.03;;;2.15;100.00
18900;BME280;9582;52.018;6.306;2023-01-29T00:36:36;102864.28;;;2.12;100.00
18900;BME280;9582;52.018;6.306;2023-01-29T00:39:02;102859.03;;;2.09;100.00
18900;BME280;9582;52.018;6.306;2023-01-29T00:41:35;102854.81;;;2.13;100.00
18900;BME280;9582;52.018;6.306;2023-01-29T00:44:23;102845.38;;;2.13;100.00
18900;BME280;9582;52.018;6.306;2023-01-29T00:47:35;102836.75;;;2.11;100.00
18900;BME280;9582;52.018;6.306;2023-01-29T00:50:04;102839.34;;;2.13;100.00
18900;BME280;9582;52.018;6.306;2023-01-29T00:52:31;102833.22;;;2.09;100.00
18900;BME280;9582;52.018;6.306;2023-01-29T00:55:00;102825.47;;;2.08;100.00
18900;BME280;9582;52.018;6.306;2023-01-29T00:57:31;102819.44;;;2.07;100.00
18900;BME280;9582;52.018;6.306;2023-01-29T01:00:00;102820.31;;;2.08;100.00
18900;BME280;9582;52.018;6.306;2023-01-29T01:02:31;102818.56;;;2.07;100.00
18900;BME280;9582;52.018;6.306;2023-01-29T01:05:18;102822.78;;;2.03;100.00
18900;BME280;9582;52.018;6.306;2023-01-29T01:07:54;102825.47;;;2.08;100.00
18900;BME280;9582;52.018;6.306;2023-01-29T01:10:26;102830.69;;;2.11;100.00
18900;BME280;9582;52.018;6.306;2023-01-29T01:12:54;102840.16;;;2.10;100.00
18900;BME280;9582;52.018;6.306;2023-01-29T01:15:26;102841.91;;;2.11;100.00
18900;BME280;9582;52.018;6.306;2023-01-29T01:17:56;102845.44;;;2.16;100.00
18900;BME280;9582;52.018;6.306;2023-01-29T01:20:32;102847.06;;;2.11;100.00
18900;BME280;9582;52.018;6.306;2023-01-29T01:22:59;102837.63;;;2.13;100.00
18900;BME280;9582;52.018;6.306;2023-01-29T01:25:29;102833.34;;;2.14;100.00
18900;BME280;9582;52.018;6.306;2023-01-29T01:27:58;102836.03;;;2.18;100.00
18900;BME280;9582;52.018;6.306;2023-01-29T01:30:28;102832.63;;;2.21;100.00
18900;BME280;9582;52.018;6.306;2023-01-29T01:32:54;102838.53;;;2.15;100.00
18900;BME280;9582;52.018;6.306;2023-01-29T01:35:25;102841.19;;;2.18;100.00
18900;BME280;9582;52.018;6.306;2023-01-29T01:38:00;102839.44;;;2.17;100.00
18900;BME280;9582;52.018;6.306;2023-01-29T01:40:36;102835.13;;;2.16;100.00
18900;BME280;9582;52.018;6.306;2023-01-29T01:43:10;102832.50;;;2.15;100.00
18900;BME280;9582;52.018;6.306;2023-01-29T01:45:47;102833.28;;;2.11;100.00
18900;BME280;9582;52.018;6.306;2023-01-29T01:48:17;102829.81;;;2.10;100.00
18900;BME280;9582;52.018;6.306;2023-01-29T01:50:48;102830.69;;;2.11;100.00
18900;BME280;9582;52.018;6.306;2023-01-29T01:53:22;102823.84;;;2.13;100.00
18900;BME280;9582;52.018;6.306;2023-01-29T01:56:02;102820.41;;;2.12;100.00
18900;BME280;9582;52.018;6.306;2023-01-29T01:58:36;102819.56;;;2.13;100.00
18900;BME280;9582;52.018;6.306;2023-01-29T02:01:09;102827.25;;;2.12;100.00
18900;BME280;9582;52.018;6.306;2023-01-29T02:03:44;102834.91;;;2.07;100.00
18900;BME280;9582;52.018;6.306;2023-01-29T02:06:30;102830.63;;;2.08;100.00
18900;BME280;9582;52.018;6.306;2023-01-29T02:09:35;102831.44;;;2.05;100.00
18900;BME280;9582;52.018;6.306;2023-01-29T02:12:06;102832.19;;;2.01;100.00
18900;BME280;9582;52.018;6.306;2023-01-29T02:14:37;102833.16;;;2.05;100.00
18900;BME280;9582;52.018;6.306;2023-01-29T02:17:09;102834.84;;;2.04;100.00
18900;BME280;9582;52.018;6.306;2023-01-29T02:19:42;102833.06;;;2.02;100.00
18900;BME280;9582;52.018;6.306;2023-01-29T02:22:50;102837.50;;;2.07;100.00
18900;BME280;9582;52.018;6.306;2023-01-29T02:25:46;102841.03;;;2.11;100.00
18900;BME280;9582;52.018;6.306;2023-01-29T02:28:30;102829.75;;;2.07;100.00
18900;BME280;9582;52.018;6.306;2023-01-29T02:31:15;102827.94;;;2.03;100.00
18900;BME280;9582;52.018;6.306;2023-01-29T02:33:57;102829.69;;;2.04;100.00
18900;BME280;9582;52.018;6.306;2023-01-29T02:36:37;102834.03;;;2.05;100.00
18900;BME280;9582;52.018;6.306;2023-01-29T02:39:22;102828.94;;;2.08;100.00
18900;BME280;9582;52.018;6.306;2023-01-29T02:42:05;102829.81;;;2.10;100.00
18900;BME280;9582;52.018;6.306;2023-01-29T02:44:51;102835.00;;;2.10;100.00
18900;BME280;9582;52.018;6.306;2023-01-29T02:47:29;102835.94;;;2.15;100.00
18900;BME280;9582;52.018;6.306;2023-01-29T02:50:05;102828.13;;;2.12;100.00
18900;BME280;9582;52.018;6.306;2023-01-29T02:52:39;102835.88;;;2.11;100.00
18900;BME280;9582;52.018;6.306;2023-01-29T02:55:20;102836.75;;;2.11;100.00
18900;BME280;9582;52.018;6.306;2023-01-29T02:57:57;102842.72;;;2.10;100.00
18900;BME280;9582;52.018;6.306;2023-01-29T03:00:32;102841.03;;;2.11;100.00
18900;BME280;9582;52.018;6.306;2023-01-29T03:03:03;102849.53;;;2.07;100.00
18900;BME280;9582;52.018;6.306;2023-01-29T03:05:36;102846.94;;;2.07;100.00
18900;BME280;9582;52.018;6.306;2023-01-29T03:08:22;102845.25;;;2.07;100.00
18900;BME280;9582;52.018;6.306;2023-01-29T03:11:04;102840.06;;;2.07;100.00
18900;BME280;9582;52.018;6.306;2023-01-29T03:13:41;102850.41;;;2.07;100.00
18900;BME280;9582;52.018;6.306;2023-01-29T03:16:16;102840.06;;;2.07;100.00
18900;BME280;9582;52.018;6.306;2023-01-29T03:18:54;102846.03;;;2.05;100.00
18900;BME280;9582;52.018;6.306;2023-01-29T03:21:35;102833.97;;;2.04;100.00
18900;BME280;9582;52.018;6.306;2023-01-29T03:24:28;102833.94;;;2.02;100.00
18900;BME280;9582;52.018;6.306;2023-01-29T03:27:19;102827.03;;;2.01;100.00
18900;BME280;9582;52.018;6.306;2023-01-29T03:30:09;102821.88;;;2.01;100.00
18900;BME280;9582;52.018;6.306;2023-01-29T03:33:09;102814.22;;;2.04;100.00
18900;BME280;9582;52.018;6.306;2023-01-29T03:35:42;102815.88;;;2.02;100.00
18900;BME280;9582;52.018;6.306;2023-01-29T03:38:13;102808.97;;;2.01;100.00
18900;BME280;9582;52.018;6.306;2023-01-29T03:40:46;102795.19;;;1.99;100.00
18900;BME280;9582;52.018;6.306;2023-01-29T03:43:30;102793.47;;;2.00;100.00
18900;BME280;9582;52.018;6.306;2023-01-29T03:46:04;102791.81;;;2.03;100.00
18900;BME280;9582;52.018;6.306;2023-01-29T03:48:42;102789.22;;;2.03;100.00
18900;BME280;9582;52.018;6.306;2023-01-29T03:51:20;102788.34;;;2.01;100.00
18900;BME280;9582;52.018;6.306;2023-01-29T03:53:58;102789.94;;;1.96;100.00
18900;BME280;9582;52.018;6.306;2023-01-29T03:56:36;102780.44;;;1.95;100.00
18900;BME280;9582;52.018;6.306;2023-01-29T03:59:20;102782.13;;;1.92;100.00
18900;BME280;9582;52.018;6.306;2023-01-29T04:02:23;102783.97;;;1.99;100.00
18900;BME280;9582;52.018;6.306;2023-01-29T04:05:10;102777.06;;;1.98;100.00
18900;BME280;9582;52.018;6.306;2023-01-29T04:07:55;102778.75;;;1.96;100.00
18900;BME280;9582;52.018;6.306;2023-01-29T04:10:26;102786.47;;;1.94;100.00
18900;BME280;9582;52.018;6.306;2023-01-29T04:13:09;102795.19;;;2.01;100.00
18900;BME280;9582;52.018;6.306;2023-01-29T04:15:45;102784.94;;;2.02;100.00
18900;BME280;9582;52.018;6.306;2023-01-29T04:18:17;102775.41;;;2.00;100.00
18900;BME280;9582;52.018;6.306;2023-01-29T04:21:18;102766.81;;;2.01;100.00
18900;BME280;9582;52.018;6.306;2023-01-29T04:23:48;102758.13;;;1.96;100.00
18900;BME280;9582;52.018;6.306;2023-01-29T04:26:28;102755.59;;;1.99;100.00
18900;BME280;9582;52.018;6.306;2023-01-29T04:29:16;102754.78;;;2.01;100.00
18900;BME280;9582;52.018;6.306;2023-01-29T04:31:56;102740.16;;;2.00;100.00
18900;BME280;9582;52.018;6.306;2023-01-29T04:34:32;102740.94;;;1.98;100.00
18900;BME280;9582;52.018;6.306;2023-01-29T04:37:12;102729.88;;;2.03;100.00
18900;BME280;9582;52.018;6.306;2023-01-29T04:39:46;102736.72;;;2.01;100.00
18900;BME280;9582;52.018;6.306;2023-01-29T04:42:20;102737.53;;;1.97;100.00
18900;BME280;9582;52.018;6.306;2023-01-29T04:45:00;102737.47;;;1.96;100.00
18900;BME280;9582;52.018;6.306;2023-01-29T04:47:38;102740.03;;;1.94;100.00
18900;BME280;9582;52.018;6.306;2023-01-29T04:50:15;102745.22;;;1.96;100.00
18900;BME280;9582;52.018;6.306;2023-01-29T04:52:51;102738.41;;;1.99;100.00
18900;BME280;9582;52.018;6.306;2023-01-29T04:55:28;102735.00;;;2.00;100.00
18900;BME280;9582;52.018;6.306;2023-01-29T04:58:06;102732.38;;;1.99;100.00
18900;BME280;9582;52.018;6.306;2023-01-29T05:00:37;102721.16;;;1.97;100.00
18900;BME280;9582;52.018;6.306;2023-01-29T05:03:07;102722.94;;;1.99;100.00
18900;BME280;9582;52.018;6.306;2023-01-29T05:05:45;102718.47;;;1.92;100.00
18900;BME280;9582;52.018;6.306;2023-01-29T05:08:19;102727.09;;;1.93;100.00
18900;BME280;9582;52.018;6.306;2023-01-29T05:10:49;102727.94;;;1.92;100.00
18900;BME280;9582;52.018;6.306;2023-01-29T05:13:19;102722.81;;;1.93;100.00
18900;BME280;9582;52.018;6.306;2023-01-29T05:15:49;102731.47;;;1.97;100.00
18900;BME280;9582;52.018;6.306;2023-01-29T05:18:17;102735.78;;;1.96;100.00
18900;BME280;9582;52.018;6.306;2023-01-29T05:21:00;102724.63;;;1.97;100.00
18900;BME280;9582;52.018;6.306;2023-01-29T05:23:37;102730.59;;;1.96;100.00
18900;BME280;9582;52.018;6.306;2023-01-29T05:26:20;102719.34;;;1.93;100.00
18900;BME280;9582;52.018;6.306;2023-01-29T05:29:09;102726.19;;;1.91;100.00
18900;BME280;9582;52.018;6.306;2023-01-29T05:31:44;102727.09;;;1.93;100.00
18900;BME280;9582;52.018;6.306;2023-01-29T05:34:18;102729.66;;;1.93;100.00
18900;BME280;9582;52.018;6.306;2023-01-29T05:36:48;102740.94;;;1.98;100.00
18900;BME280;9582;52.018;6.306;2023-01-29T05:39:16;102747.94;;;2.02;100.00
18900;BME280;9582;52.018;6.306;2023-01-29T05:41:49;102755.72;;;2.05;100.00
18900;BME280;9582;52.018;6.306;2023-01-29T05:44:26;102756.59;;;2.05;100.00
18900;BME280;9582;52.018;6.306;2023-01-29T05:47:02;102749.75;;;2.07;100.00
18900;BME280;9582;52.018;6.306;2023-01-29T05:49:31;102742.78;;;2.03;100.00
18900;BME280;9582;52.018;6.306;2023-01-29T05:51:58;102753.09;;;2.02;100.00
18900;BME280;9582;52.018;6.306;2023-01-29T05:54:32;102756.38;;;1.95;100.00
18900;BME280;9582;52.018;6.306;2023-01-29T05:57:09;102770.06;;;1.92;100.00
18900;BME280;9582;52.018;6.306;2023-01-29T05:59:38;102752.06;;;1.95;100.00
18900;BME280;9582;52.018;6.306;2023-01-29T06:02:10;102743.50;;;1.95;100.00
18900;BME280;9582;52.018;6.306;2023-01-29T06:04:42;102734.88;;;1.96;100.00
18900;BME280;9582;52.018;6.306;2023-01-29T06:07:13;102736.53;;;1.92;100.00
18900;BME280;9582;52.018;6.306;2023-01-29T06:09:53;102733.22;;;1.98;100.00
18900;BME280;9582;52.018;6.306;2023-01-29T06:12:25;102721.19;;;1.98;100.00
18900;BME280;9582;52.018;6.306;2023-01-29T06:14:52;102727.22;;;1.99;100.00
18900;BME280;9582;52.018;6.306;2023-01-29T06:17:18;102727.13;;;1.94;100.00
18900;BME280;9582;52.018;6.306;2023-01-29T06:19:48;102725.44;;;1.95;100.00
18900;BME280;9582;52.018;6.306;2023-01-29T06:22:15;102724.63;;;1.97;100.00
18900;BME280;9582;52.018;6.306;2023-01-29T06:24:46;102716.03;;;1.98;100.00
18900;BME280;9582;52.018;6.306;2023-01-29T06:27:18;102710.88;;;1.98;100.00
18900;BME280;9582;52.018;6.306;2023-01-29T06:29:45;102722.94;;;1.99;100.00
18900;BME280;9582;52.018;6.306;2023-01-29T06:32:14;102701.41;;;1.97;100.00
18900;BME280;9582;52.018;6.306;2023-01-29T06:34:48;102704.75;;;1.93;100.00
18900;BME280;9582;52.018;6.306;2023-01-29T06:37:18;102714.09;;;1.88;100.00
18900;BME280;9582;52.018;6.306;2023-01-29T06:39:46;102715.81;;;1.89;100.00
18900;BME280;9582;52.018;6.306;2023-01-29T06:42:23;102714.09;;;1.88;100.00
18900;BME280;9582;52.018;6.306;2023-01-29T06:44:53;102710.66;;;1.89;100.00
18900;BME280;9582;52.018;6.306;2023-01-29T06:47:30;102711.47;;;1.87;100.00
18900;BME280;9582;52.018;6.306;2023-01-29T06:49:59;102705.72;;;1.98;100.00
18900;BME280;9582;52.018;6.306;2023-01-29T06:52:31;102705.63;;;1.95;100.00
18900;BME280;9582;52.018;6.306;2023-01-29T06:54:57;102719.47;;;1.97;100.00
18900;BME280;9582;52.018;6.306;2023-01-29T06:57:29;102714.94;;;1.87;100.00
18900;BME280;9582;52.018;6.306;2023-01-29T07:00:00;102718.38;;;1.86;100.00
18900;BME280;9582;52.018;6.306;2023-01-29T07:02:32;102706.25;;;1.84;100.00
18900;BME280;9582;52.018;6.306;2023-01-29T07:05:01;102711.53;;;1.88;100.00
18900;BME280;9582;52.018;6.306;2023-01-29T07:07:27;102705.47;;;1.86;100.00
18900;BME280;9582;52.018;6.306;2023-01-29T07:10:00;102698.03;;;2.01;100.00
18900;BME280;9582;52.018;6.306;2023-01-29T07:12:32;102695.16;;;1.86;100.00
18900;BME280;9582;52.018;6.306;2023-01-29T07:15:01;102706.31;;;1.85;100.00
18900;BME280;9582;52.018;6.306;2023-01-29T07:17:36;102700.25;;;1.85;100.00
18900;BME280;9582;52.018;6.306;2023-01-29T07:20:06;102704.63;;;1.87;100.00
18900;BME280;9582;52.018;6.306;2023-01-29T07:22:41;102695.16;;;1.86;100.00
18900;BME280;9582;52.018;6.306;2023-01-29T07:25:11;102692.56;;;1.86;100.00
18900;BME280;9582;52.018;6.306;2023-01-29T07:27:41;102701.97;;;1.84;100.00
18900;BME280;9582;52.018;6.306;2023-01-29T07:30:09;102696.00;;;1.87;100.00
18900;BME280;9582;52.018;6.306;2023-01-29T07:32:41;102705.50;;;1.88;100.00
18900;BME280;9582;52.018;6.306;2023-01-29T07:35:09;102707.19;;;1.87;100.00
18900;BME280;9582;52.018;6.306;2023-01-29T07:37:39;102710.66;;;1.88;100.00
18900;BME280;9582;52.018;6.306;2023-01-29T07:40:10;102718.41;;;1.89;100.00
18900;BME280;9582;52.018;6.306;2023-01-29T07:42:41;102721.06;;;1.92;100.00
18900;BME280;9582;52.018;6.306;2023-01-29T07:45:11;102725.31;;;1.90;100.00
18900;BME280;9582;52.018;6.306;2023-01-29T07:47:42;102718.59;;;1.98;100.00
18900;BME280;9582;52.018;6.306;2023-01-29T07:50:09;102715.16;;;1.98;100.00
18900;BME280;9582;52.018;6.306;2023-01-29T07:52:42;102703.97;;;1.97;100.00
18900;BME280;9582;52.018;6.306;2023-01-29T07:55:14;102694.56;;;1.99;100.00
18900;BME280;9582;52.018;6.306;2023-01-29T07:57:56;102680.84;;;2.02;100.00
18900;BME280;9582;52.018;6.306;2023-01-29T08:00:31;102685.13;;;2.01;100.00
18900;BME280;9582;52.018;6.306;2023-01-29T08:03:10;102681.72;;;2.02;100.00
18900;BME280;9582;52.018;6.306;2023-01-29T08:05:38;102682.66;;;2.06;100.00
18900;BME280;9582;52.018;6.306;2023-01-29T08:08:07;102674.06;;;2.07;100.00
18900;BME280;9582;52.018;6.306;2023-01-29T08:10:40;102680.09;;;2.07;100.00
18900;BME280;9582;52.018;6.306;2023-01-29T08:13:16;102675.88;;;2.11;100.00
18900;BME280;9582;52.018;6.306;2023-01-29T08:15:43;102663.81;;;2.10;100.00
18900;BME280;9582;52.018;6.306;2023-01-29T08:18:10;102644.03;;;2.09;100.00
18900;BME280;9582;52.018;6.306;2023-01-29T08:20:42;102646.59;;;2.10;100.00
18900;BME280;9582;52.018;6.306;2023-01-29T08:23:13;102644.03;;;2.10;100.00
18900;BME280;9582;52.018;6.306;2023-01-29T08:25:45;102648.38;;;2.13;100.00
18900;BME280;9582;52.018;6.306;2023-01-29T08:28:17;102640.69;;;2.16;100.00
18900;BME280;9582;52.018;6.306;2023-01-29T08:30:47;102644.09;;;2.13;100.00
18900;BME280;9582;52.018;6.306;2023-01-29T08:33:13;102654.41;;;2.13;100.00
18900;BME280;9582;52.018;6.306;2023-01-29T08:35:47;102653.59;;;2.14;100.00
18900;BME280;9582;52.018;6.306;2023-01-29T08:38:13;102645.22;;;2.29;100.00
18900;BME280;9582;52.018;6.306;2023-01-29T08:40:50;102639.94;;;2.21;100.00
18900;BME280;9582;52.018;6.306;2023-01-29T08:43:24;102633.09;;;2.23;100.00
18900;BME280;9582;52.018;6.306;2023-01-29T08:45:56;102635.00;;;2.33;100.00
18900;BME280;9582;52.018;6.306;2023-01-29T08:48:26;102624.69;;;2.33;100.00
18900;BME280;9582;52.018;6.306;2023-01-29T08:50:58;102620.41;;;2.34;100.00
18900;BME280;9582;52.018;6.306;2023-01-29T08:53:37;102623.84;;;2.36;100.00
18900;BME280;9582;52.018;6.306;2023-01-29T08:56:14;102619.59;;;2.38;100.00
18900;BME280;9582;52.018;6.306;2023-01-29T08:58:42;102626.50;;;2.39;100.00
18900;BME280;9582;52.018;6.306;2023-01-29T09:01:12;102627.38;;;2.40;100.00
18900;BME280;9582;52.018;6.306;2023-01-29T09:03:39;102628.22;;;2.40;100.00
18900;BME280;9582;52.018;6.306;2023-01-29T09:06:09;102625.78;;;2.48;100.00
18900;BME280;9582;52.018;6.306;2023-01-29T09:08:39;102619.91;;;2.56;100.00
18900;BME280;9582;52.018;6.306;2023-01-29T09:11:11;102624.25;;;2.59;100.00
18900;BME280;9582;52.018;6.306;2023-01-29T09:13:38;102619.19;;;2.65;100.00
18900;BME280;9582;52.018;6.306;2023-01-29T09:16:10;102614.88;;;2.65;100.00
18900;BME280;9582;52.018;6.306;2023-01-29T09:18:46;102611.56;;;2.72;100.00
18900;BME280;9582;52.018;6.306;2023-01-29T09:21:15;102605.69;;;2.82;100.00
18900;BME280;9582;52.018;6.306;2023-01-29T09:23:44;102621.28;;;2.87;100.00
18900;BME280;9582;52.018;6.306;2023-01-29T09:26:11;102629.91;;;2.89;100.00
18900;BME280;9582;52.018;6.306;2023-01-29T09:28:42;102624.78;;;2.93;100.00
18900;BME280;9582;52.018;6.306;2023-01-29T09:31:17;102630.94;;;2.99;100.00
18900;BME280;9582;52.018;6.306;2023-01-29T09:33:43;102627.44;;;2.97;100.00
18900;BME280;9582;52.018;6.306;2023-01-29T09:36:24;102624.00;;;2.96;100.00
18900;BME280;9582;52.018;6.306;2023-01-29T09:38:53;102629.22;;;2.99;100.00
18900;BME280;9582;52.018;6.306;2023-01-29T09:41:32;102631.81;;;2.99;100.00
18900;BME280;9582;52.018;6.306;2023-01-29T09:44:10;102632.75;;;3.06;100.00
18900;BME280;9582;52.018;6.306;2023-01-29T09:46:46;102635.38;;;3.07;100.00
18900;BME280;9582;52.018;6.306;2023-01-29T09:49:27;102637.09;;;3.08;100.00
18900;BME280;9582;52.018;6.306;2023-01-29T09:51:57;102625.84;;;3.05;100.00
18900;BME280;9582;52.018;6.306;2023-01-29T09:54:48;102623.28;;;3.06;100.00
18900;BME280;9582;52.018;6.306;2023-01-29T09:57:24;102626.75;;;3.08;100.00
18900;BME280;9582;52.018;6.306;2023-01-29T09:59:55;102619.94;;;3.13;100.00
18900;BME280;9582;52.018;6.306;2023-01-29T10:02:42;102631.09;;;3.11;100.00
18900;BME280;9582;52.018;6.306;2023-01-29T10:05:40;102624.16;;;3.08;100.00
18900;BME280;9582;52.018;6.306;2023-01-29T10:11:31;102619.13;;;3.17;100.00
18900;BME280;9582;52.018;6.306;2023-01-29T10:14:12;102612.31;;;3.21;100.00
18900;BME280;9582;52.018;6.306;2023-01-29T10:16:56;102621.78;;;3.22;100.00
18900;BME280;9582;52.018;6.306;2023-01-29T10:19:55;102613.13;;;3.18;100.00
18900;BME280;9582;52.018;6.306;2023-01-29T10:22:44;102601.09;;;3.20;100.00
18900;BME280;9582;52.018;6.306;2023-01-29T10:25:22;102610.69;;;3.27;100.00
18900;BME280;9582;52.018;6.306;2023-01-29T10:27:56;102601.03;;;3.17;100.00
18900;BME280;9582;52.018;6.306;2023-01-29T10:30:36;102599.41;;;3.25;100.00
18900;BME280;9582;52.018;6.306;2023-01-29T10:33:08;102602.78;;;3.18;100.00
18900;BME280;9582;52.018;6.306;2023-01-29T10:35:41;102601.09;;;3.20;100.00
18900;BME280;9582;52.018;6.306;2023-01-29T10:38:23;102604.53;;;3.21;100.00
18900;BME280;9582;52.018;6.306;2023-01-29T10:41:00;102605.38;;;3.20;100.00
18900;BME280;9582;52.018;6.306;2023-01-29T10:43:38;102602.00;;;3.24;100.00
18900;BME280;9582;52.018;6.306;2023-01-29T10:46:19;102596.03;;;3.29;100.00
18900;BME280;9582;52.018;6.306;2023-01-29T10:48:55;102592.59;;;3.27;100.00
18900;BME280;9582;52.018;6.306;2023-01-29T10:51:39;102587.41;;;3.27;100.00
18900;BME280;9582;52.018;6.306;2023-01-29T10:54:25;102583.94;;;3.28;100.00
18900;BME280;9582;52.018;6.306;2023-01-29T10:57:12;102566.78;;;3.33;100.00
18900;BME280;9582;52.018;6.306;2023-01-29T10:59:58;102565.94;;;3.33;100.00
18900;BME280;9582;52.018;6.306;2023-01-29T11:02:28;102560.78;;;3.34;100.00
18900;BME280;9582;52.018;6.306;2023-01-29T11:04:59;102565.16;;;3.38;100.00
18900;BME280;9582;52.018;6.306;2023-01-29T11:07:30;102555.63;;;3.37;100.00
18900;BME280;9582;52.018;6.306;2023-01-29T11:10:02;102553.06;;;3.37;100.00
18900;BME280;9582;52.018;6.306;2023-01-29T11:12:38;102551.34;;;3.39;100.00
18900;BME280;9582;52.018;6.306;2023-01-29T11:15:15;102545.25;;;3.34;100.00
18900;BME280;9582;52.018;6.306;2023-01-29T11:18:05;102539.28;;;3.38;100.00
18900;BME280;9582;52.018;6.306;2023-01-29T11:20:35;102529.88;;;3.45;100.00
18900;BME280;9582;52.018;6.306;2023-01-29T11:23:02;102519.50;;;3.45;100.00
18900;BME280;9582;52.018;6.306;2023-01-29T11:25:31;102513.47;;;3.44;100.00
18900;BME280;9582;52.018;6.306;2023-01-29T11:27:59;102508.38;;;3.49;100.00
18900;BME280;9582;52.018;6.306;2023-01-29T11:30:30;102509.31;;;3.57;100.00
18900;BME280;9582;52.018;6.306;2023-01-29T11:33:20;102507.59;;;3.59;100.00
18900;BME280;9582;52.018;6.306;2023-01-29T11:35:53;102498.19;;;3.66;100.00
18900;BME280;9582;52.018;6.306;2023-01-29T11:38:26;102494.78;;;3.67;100.00
18900;BME280;9582;52.018;6.306;2023-01-29T11:41:09;102497.38;;;3.68;100.00
18900;BME280;9582;52.018;6.306;2023-01-29T11:43:47;102482.66;;;3.63;100.00
18900;BME280;9582;52.018;6.306;2023-01-29T11:46:14;102487.81;;;3.61;100.00
18900;BME280;9582;52.018;6.306;2023-01-29T11:48:46;102488.69;;;3.63;100.00
18900;BME280;9582;52.018;6.306;2023-01-29T11:51:22;102484.44;;;3.67;100.00
18900;BME280;9582;52.018;6.306;2023-01-29T11:53:55;102479.25;;;3.67;100.00
18900;BME280;9582;52.018;6.306;2023-01-29T11:56:31;102478.41;;;3.69;100.00
18900;BME280;9582;52.018;6.306;2023-01-29T11:59:01;102469.78;;;3.69;100.00
18900;BME280;9582;52.018;6.306;2023-01-29T12:01:38;102463.78;;;3.76;100.00
18900;BME280;9582;52.018;6.306;2023-01-29T12:04:17;102463.81;;;3.79;100.00
18900;BME280;9582;52.018;6.306;2023-01-29T12:06:49;102460.38;;;3.75;100.00
18900;BME280;9582;52.018;6.306;2023-01-29T12:09:22;102449.09;;;3.70;100.00
18900;BME280;9582;52.018;6.306;2023-01-29T12:11:59;102447.44;;;3.77;100.00
18900;BME280;9582;52.018;6.306;2023-01-29T12:14:44;102433.69;;;3.82;100.00
18900;BME280;9582;52.018;6.306;2023-01-29T12:17:18;102439.72;;;3.83;100.00
18900;BME280;9582;52.018;6.306;2023-01-29T12:19:56;102438.84;;;3.81;100.00
18900;BME280;9582;52.018;6.306;2023-01-29T12:22:45;102429.31;;;3.78;100.00
18900;BME280;9582;52.018;6.306;2023-01-29T12:25:20;102425.91;;;3.81;100.00
18900;BME280;9582;52.018;6.306;2023-01-29T12:27:56;102427.66;;;3.85;100.00
18900;BME280;9582;52.018;6.306;2023-01-29T12:30:30;102413.00;;;3.85;100.00
18900;BME280;9582;52.018;6.306;2023-01-29T12:33:08;102411.28;;;3.87;100.00
18900;BME280;9582;52.018;6.306;2023-01-29T12:35:43;102405.28;;;3.90;100.00
18900;BME280;9582;52.018;6.306;2023-01-29T12:38:17;102400.13;;;3.91;100.00
18900;BME280;9582;52.018;6.306;2023-01-29T12:40:50;102395.81;;;3.93;100.00
18900;BME280;9582;52.018;6.306;2023-01-29T12:43:27;102384.59;;;3.93;100.00
18900;BME280;9582;52.018;6.306;2023-01-29T12:46:02;102387.22;;;3.99;100.00
18900;BME280;9582;52.018;6.306;2023-01-29T12:48:33;102377.72;;;3.98;100.00
18900;BME280;9582;52.018;6.306;2023-01-29T12:51:08;102363.94;;;3.99;100.00
18900;BME280;9582;52.018;6.306;2023-01-29T12:53:40;102354.44;;;4.01;100.00
18900;BME280;9582;52.018;6.306;2023-01-29T12:56:12;102361.34;;;3.99;100.00
18900;BME280;9582;52.018;6.306;2023-01-29T12:58:46;102355.31;;;4.01;100.00
18900;BME280;9582;52.018;6.306;2023-01-29T13:01:19;102355.31;;;3.98;100.00
18900;BME280;9582;52.018;6.306;2023-01-29T13:03:52;102353.59;;;3.97;100.00
18900;BME280;9582;52.018;6.306;2023-01-29T13:06:25;102351.88;;;4.01;100.00
18900;BME280;9582;52.018;6.306;2023-01-29T13:08:58;102349.31;;;4.07;100.00
18900;BME280;9582;52.018;6.306;2023-01-29T13:11:35;102341.56;;;4.10;100.00
18900;BME280;9582;52.018;6.306;2023-01-29T13:14:13;102332.97;;;4.14;100.00
18900;BME280;9582;52.018;6.306;2023-01-29T13:16:52;102338.16;;;4.14;100.00
18900;BME280;9582;52.018;6.306;2023-01-29T13:19:26;102320.91;;;4.16;100.00
18900;BME280;9582;52.018;6.306;2023-01-29T13:22:03;102322.63;;;4.14;100.00
18900;BME280;9582;52.018;6.306;2023-01-29T13:24:38;102319.19;;;4.21;100.00
18900;BME280;9582;52.018;6.306;2023-01-29T13:27:18;102310.53;;;4.12;100.00
18900;BME280;9582;52.018;6.306;2023-01-29T13:29:54;102303.66;;;4.18;100.00
18900;BME280;9582;52.018;6.306;2023-01-29T13:32:25;102305.38;;;4.15;100.00
18900;BME280;9582;52.018;6.306;2023-01-29T13:34:57;102302.78;;;4.21;100.00
18900;BME280;9582;52.018;6.306;2023-01-29T13:37:33;102296.78;;;4.20;100.00
18900;BME280;9582;52.018;6.306;2023-01-29T13:40:05;102294.13;;;4.11;100.00
18900;BME280;9582;52.018;6.306;2023-01-29T13:42:42;102293.28;;;4.09;100.00
18900;BME280;9582;52.018;6.306;2023-01-29T13:45:21;102288.09;;;4.09;100.00